sensor_id;sensor_type;location;lat;lon;timestamp;pressure;altitude;pressure_sealevel;temperature;humidity
8229;BME280;4155;50.118;8.714;2022-09-21T00:00:47;101027.41;;;9.41;100.00
8229;BME280;4155;50.118;8.714;2022-09-21T00:03:15;101024.56;;;9.42;100.00
8229;BME280;4155;50.118;8.714;2022-09-21T00:05:44;101028.59;;;9.38;100.00
8229;BME280;4155;50.118;8.714;2022-09-21T00:08:13;101025.72;;;9.32;100.00
8229;BME280;4155;50.118;8.714;2022-09-21T00:10:48;101025.06;;;9.30;100.00
8229;BME280;4155;50.118;8.714;2022-09-21T00:13:15;101022.53;;;9.28;100.00
8229;BME280;4155;50.118;8.714;2022-09-21T00:15:45;101030.59;;;9.36;100.00
8229;BME280;4155;50.118;8.714;2022-09-21T00:18:12;101027.56;;;9.31;100.00
8229;BME280;4155;50.118;8.714;2022-09-21T00:20:40;101027.91;;;9.28;100.00
8229;BME280;4155;50.118;8.714;2022-09-21T00:23:08;101031.56;;;9.27;100.00
8229;BME280;4155;50.118;8.714;2022-09-21T00:25:36;101026.72;;;9.31;100.00
8229;BME280;4155;50.118;8.714;2022-09-21T00:28:12;101029.38;;;9.22;100.00
8229;BME280;4155;50.118;8.714;2022-09-21T00:30:39;101027.19;;;9.18;100.00
8229;BME280;4155;50.118;8.714;2022-09-21T00:33:07;101031.03;;;9.15;100.00
8229;BME280;4155;50.118;8.714;2022-09-21T00:35:35;101031.88;;;9.16;100.00
8229;BME280;4155;50.118;8.714;2022-09-21T00:38:02;101036.69;;;9.12;100.00
8229;BME280;4155;50.118;8.714;2022-09-21T00:40:30;101033.34;;;9.10;100.00
8229;BME280;4155;50.118;8.714;2022-09-21T00:43:13;101038.06;;;9.16;100.00
8229;BME280;4155;50.118;8.714;2022-09-21T00:45:43;101037.53;;;9.05;100.00
8229;BME280;4155;50.118;8.714;2022-09-21T00:48:13;101043.38;;;9.08;100.00
8229;BME280;4155;50.118;8.714;2022-09-21T00:50:45;101040.66;;;9.00;100.00
8229;BME280;4155;50.118;8.714;2022-09-21T00:53:14;101036.94;;;8.93;100.00
8229;BME280;4155;50.118;8.714;2022-09-21T00:55:45;101031.59;;;8.85;100.00
8229;BME280;4155;50.118;8.714;2022-09-21T00:58:18;101034.59;;;8.90;100.00
8229;BME280;4155;50.118;8.714;2022-09-21T01:00:49;101038.63;;;8.86;100.00
8229;BME280;4155;50.118;8.714;2022-09-21T01:03:17;101039.25;;;8.80;100.00
8229;BME280;4155;50.118;8.714;2022-09-21T01:05:45;101035.00;;;8.69;100.00
8229;BME280;4155;50.118;8.714;2022-09-21T01:08:13;101041.19;;;8.61;100.00
8229;BME280;4155;50.118;8.714;2022-09-21T01:10:55;101048.50;;;8.59;100.00
8229;BME280;4155;50.118;8.714;2022-09-21T01:13:35;101051.88;;;8.69;100.00
8229;BME280;4155;50.118;8.714;2022-09-21T01:16:12;101044.69;;;8.62;100.00
8229;BME280;4155;50.118;8.714;2022-09-21T01:18:46;101049.03;;;8.63;100.00
8229;BME280;4155;50.118;8.714;2022-09-21T01:21:20;101049.72;;;8.65;100.00
8229;BME280;4155;50.118;8.714;2022-09-21T01:24:04;101052.72;;;8.62;100.00
8229;BME280;4155;50.118;8.714;2022-09-21T01:26:53;101046.47;;;8.53;100.00
8229;BME280;4155;50.118;8.714;2022-09-21T01:29:31;101041.91;;;8.46;100.00
8229;BME280;4155;50.118;8.714;2022-09-21T01:32:05;101050.41;;;8.41;100.00
8229;BME280;4155;50.118;8.714;2022-09-21T01:34:39;101053.38;;;8.38;100.00
8229;BME280;4155;50.118;8.714;2022-09-21T01:37:12;101052.16;;;8.32;100.00
8229;BME280;4155;50.118;8.714;2022-09-21T01:39:44;101052.91;;;8.25;100.00
8229;BME280;4155;50.118;8.714;2022-09-21T01:42:15;101051.75;;;8.27;100.00
8229;BME280;4155;50.118;8.714;2022-09-21T01:44:46;101052.91;;;8.25;100.00
8229;BME280;4155;50.118;8.714;2022-09-21T01:47:14;101052.41;;;8.21;100.00
8229;BME280;4155;50.118;8.714;2022-09-21T01:49:45;101055.84;;;8.13;100.00
8229;BME280;4155;50.118;8.714;2022-09-21T01:52:17;101057.50;;;8.15;100.00
8229;BME280;4155;50.118;8.714;2022-09-21T01:54:50;101053.91;;;8.24;100.00
8229;BME280;4155;50.118;8.714;2022-09-21T01:57:28;101051.19;;;8.16;100.00
8229;BME280;4155;50.118;8.714;2022-09-21T02:00:00;101052.34;;;8.13;100.00
8229;BME280;4155;50.118;8.714;2022-09-21T02:02:33;101056.16;;;8.10;100.00
8229;BME280;4155;50.118;8.714;2022-09-21T02:05:04;101047.16;;;8.11;100.00
8229;BME280;4155;50.118;8.714;2022-09-21T02:07:33;101047.31;;;8.10;100.00
8229;BME280;4155;50.118;8.714;2022-09-21T02:10:01;101036.22;;;8.05;100.00
8229;BME280;4155;50.118;8.714;2022-09-21T02:12:29;101046.47;;;8.09;100.00
8229;BME280;4155;50.118;8.714;2022-09-21T02:15:00;101044.78;;;8.08;100.00
8229;BME280;4155;50.118;8.714;2022-09-21T02:17:35;101043.56;;;8.03;100.00
8229;BME280;4155;50.118;8.714;2022-09-21T02:20:13;101041.91;;;8.02;100.00
8229;BME280;4155;50.118;8.714;2022-09-21T02:22:53;101036.03;;;7.98;100.00
8229;BME280;4155;50.118;8.714;2022-09-21T02:25:30;101036.31;;;7.95;100.00
8229;BME280;4155;50.118;8.714;2022-09-21T02:28:05;101042.13;;;7.91;100.00
8229;BME280;4155;50.118;8.714;2022-09-21T02:30:36;101035.56;;;7.85;100.00
8229;BME280;4155;50.118;8.714;2022-09-21T02:33:10;101034.22;;;7.81;100.00
8229;BME280;4155;50.118;8.714;2022-09-21T02:35:43;101043.66;;;7.75;100.00
8229;BME280;4155;50.118;8.714;2022-09-21T02:38:20;101041.16;;;7.74;100.00
8229;BME280;4155;50.118;8.714;2022-09-21T02:40:56;101047.09;;;7.68;100.00
8229;BME280;4155;50.118;8.714;2022-09-21T02:43:32;101044.59;;;7.66;100.00
8229;BME280;4155;50.118;8.714;2022-09-21T02:46:05;101045.56;;;7.65;100.00
8229;BME280;4155;50.118;8.714;2022-09-21T02:48:37;101050.22;;;7.63;100.00
8229;BME280;4155;50.118;8.714;2022-09-21T02:51:10;101058.41;;;7.79;100.00
8229;BME280;4155;50.118;8.714;2022-09-21T02:53:41;101048.63;;;7.70;100.00
8229;BME280;4155;50.118;8.714;2022-09-21T02:56:10;101050.81;;;7.75;100.00
8229;BME280;4155;50.118;8.714;2022-09-21T02:58:42;101052.13;;;7.71;100.00
8229;BME280;4155;50.118;8.714;2022-09-21T03:01:14;101047.56;;;7.81;100.00
8229;BME280;4155;50.118;8.714;2022-09-21T03:03:42;101046.78;;;7.71;100.00
8229;BME280;4155;50.118;8.714;2022-09-21T03:06:10;101043.19;;;7.62;100.00
8229;BME280;4155;50.118;8.714;2022-09-21T03:08:38;101040.84;;;7.59;100.00
8229;BME280;4155;50.118;8.714;2022-09-21T03:11:06;101044.88;;;7.63;100.00
8229;BME280;4155;50.118;8.714;2022-09-21T03:13:34;101043.69;;;7.58;100.00
8229;BME280;4155;50.118;8.714;2022-09-21T03:16:04;101046.63;;;7.54;100.00
8229;BME280;4155;50.118;8.714;2022-09-21T03:18:33;101050.00;;;7.57;100.00
8229;BME280;4155;50.118;8.714;2022-09-21T03:21:02;101052.13;;;7.53;100.00
8229;BME280;4155;50.118;8.714;2022-09-21T03:23:29;101047.00;;;7.42;100.00
8229;BME280;4155;50.118;8.714;2022-09-21T03:25:57;101053.78;;;7.36;100.00
8229;BME280;4155;50.118;8.714;2022-09-21T03:28:25;101059.41;;;7.33;100.00
8229;BME280;4155;50.118;8.714;2022-09-21T03:30:52;101054.78;;;7.35;100.00
8229;BME280;4155;50.118;8.714;2022-09-21T03:33:20;101054.63;;;7.37;100.00
8229;BME280;4155;50.118;8.714;2022-09-21T03:35:50;101061.53;;;7.30;100.00
8229;BME280;4155;50.118;8.714;2022-09-21T03:38:18;101066.16;;;7.37;100.00
8229;BME280;4155;50.118;8.714;2022-09-21T03:40:47;101067.72;;;7.30;100.00
8229;BME280;4155;50.118;8.714;2022-09-21T03:43:16;101065.66;;;7.24;100.00
8229;BME280;4155;50.118;8.714;2022-09-21T03:45:44;101066.50;;;7.24;100.00
8229;BME280;4155;50.118;8.714;2022-09-21T03:48:13;101058.41;;;7.16;100.00
8229;BME280;4155;50.118;8.714;2022-09-21T03:50:42;101067.81;;;7.11;100.00
8229;BME280;4155;50.118;8.714;2022-09-21T03:53:11;101059.44;;;7.06;100.00
8229;BME280;4155;50.118;8.714;2022-09-21T03:55:39;101063.59;;;7.18;100.00
8229;BME280;4155;50.118;8.714;2022-09-21T03:58:07;101070.50;;;7.11;100.00
8229;BME280;4155;50.118;8.714;2022-09-21T04:00:35;101065.88;;;7.13;100.00
8229;BME280;4155;50.118;8.714;2022-09-21T04:03:03;101071.25;;;7.03;100.00
8229;BME280;4155;50.118;8.714;2022-09-21T04:05:31;101072.78;;;7.06;100.00
8229;BME280;4155;50.118;8.714;2022-09-21T04:07:59;101074.50;;;6.97;100.00
8229;BME280;4155;50.118;8.714;2022-09-21T04:10:29;101073.75;;;7.05;100.00
8229;BME280;4155;50.118;8.714;2022-09-21T04:12:59;101077.56;;;7.02;100.00
8229;BME280;4155;50.118;8.714;2022-09-21T04:15:29;101076.84;;;7.00;100.00
8229;BME280;4155;50.118;8.714;2022-09-21T04:17:59;101087.38;;;7.02;100.00
8229;BME280;4155;50.118;8.714;2022-09-21T04:20:28;101087.38;;;7.02;100.00
8229;BME280;4155;50.118;8.714;2022-09-21T04:22:55;101081.19;;;7.01;100.00
8229;BME280;4155;50.118;8.714;2022-09-21T04:25:23;101090.78;;;6.94;100.00
8229;BME280;4155;50.118;8.714;2022-09-21T04:27:52;101078.84;;;6.98;100.00
8229;BME280;4155;50.118;8.714;2022-09-21T04:30:19;101081.19;;;7.01;100.00
8229;BME280;4155;50.118;8.714;2022-09-21T04:32:47;101073.91;;;7.03;100.00
8229;BME280;4155;50.118;8.714;2022-09-21T04:35:15;101087.53;;;7.00;100.00
8229;BME280;4155;50.118;8.714;2022-09-21T04:37:42;101082.13;;;6.92;100.00
8229;BME280;4155;50.118;8.714;2022-09-21T04:40:10;101083.97;;;7.09;100.00
8229;BME280;4155;50.118;8.714;2022-09-21T04:42:38;101083.47;;;6.96;100.00
8229;BME280;4155;50.118;8.714;2022-09-21T04:45:08;101088.97;;;6.94;100.00
8229;BME280;4155;50.118;8.714;2022-09-21T04:47:36;101092.34;;;6.87;100.00
8229;BME280;4155;50.118;8.714;2022-09-21T04:50:04;101091.41;;;6.78;100.00
8229;BME280;4155;50.118;8.714;2022-09-21T04:52:32;101091.22;;;6.89;100.00
8229;BME280;4155;50.118;8.714;2022-09-21T04:55:00;101088.72;;;6.78;100.00
8229;BME280;4155;50.118;8.714;2022-09-21T04:57:28;101089.59;;;6.69;100.00
8229;BME280;4155;50.118;8.714;2022-09-21T04:59:55;101089.75;;;6.67;100.00
8229;BME280;4155;50.118;8.714;2022-09-21T05:02:24;101089.59;;;6.69;100.00
8229;BME280;4155;50.118;8.714;2022-09-21T05:04:52;101086.22;;;6.77;100.00
8229;BME280;4155;50.118;8.714;2022-09-21T05:07:20;101103.16;;;6.85;100.00
8229;BME280;4155;50.118;8.714;2022-09-21T05:09:47;101103.06;;;6.77;100.00
8229;BME280;4155;50.118;8.714;2022-09-21T05:12:30;101102.34;;;6.85;100.00
8229;BME280;4155;50.118;8.714;2022-09-21T05:14:58;101101.22;;;6.78;100.00
8229;BME280;4155;50.118;8.714;2022-09-21T05:17:27;101102.38;;;6.75;100.00
8229;BME280;4155;50.118;8.714;2022-09-21T05:19:55;101106.16;;;6.73;100.00
8229;BME280;4155;50.118;8.714;2022-09-21T05:22:23;101113.59;;;6.69;100.00
8229;BME280;4155;50.118;8.714;2022-09-21T05:24:51;101115.53;;;6.77;100.00
8229;BME280;4155;50.118;8.714;2022-09-21T05:27:18;101119.72;;;6.79;100.00
8229;BME280;4155;50.118;8.714;2022-09-21T05:29:46;101123.63;;;6.94;100.00
8229;BME280;4155;50.118;8.714;2022-09-21T05:32:19;101121.66;;;6.96;100.00
8229;BME280;4155;50.118;8.714;2022-09-21T05:34:58;101123.44;;;7.06;100.00
8229;BME280;4155;50.118;8.714;2022-09-21T05:37:44;101122.47;;;7.07;100.00
8229;BME280;4155;50.118;8.714;2022-09-21T05:40:12;101123.69;;;7.12;100.00
8229;BME280;4155;50.118;8.714;2022-09-21T05:42:40;101125.25;;;7.15;100.00
8229;BME280;4155;50.118;8.714;2022-09-21T05:45:12;101130.28;;;7.18;100.00
8229;BME280;4155;50.118;8.714;2022-09-21T05:47:48;101135.38;;;7.39;100.00
8229;BME280;4155;50.118;8.714;2022-09-21T05:50:29;101126.22;;;7.41;100.00
8229;BME280;4155;50.118;8.714;2022-09-21T05:53:07;101138.50;;;7.79;100.00
8229;BME280;4155;50.118;8.714;2022-09-21T05:55:43;101137.19;;;7.83;100.00
8229;BME280;4155;50.118;8.714;2022-09-21T05:58:20;101145.22;;;8.55;100.00
8229;BME280;4155;50.118;8.714;2022-09-21T06:01:00;101150.28;;;9.52;100.00
8229;BME280;4155;50.118;8.714;2022-09-21T06:03:32;101145.72;;;10.03;98.73
8229;BME280;4155;50.118;8.714;2022-09-21T06:06:03;101138.84;;;10.73;95.24
8229;BME280;4155;50.118;8.714;2022-09-21T06:08:30;101148.66;;;11.22;86.27
8229;BME280;4155;50.118;8.714;2022-09-21T06:10:58;101153.81;;;11.71;79.38
8229;BME280;4155;50.118;8.714;2022-09-21T06:13:26;101156.00;;;13.34;75.53
8229;BME280;4155;50.118;8.714;2022-09-21T06:15:53;101155.78;;;14.01;68.94
8229;BME280;4155;50.118;8.714;2022-09-21T06:18:21;101160.44;;;14.29;67.31
8229;BME280;4155;50.118;8.714;2022-09-21T06:20:49;101153.06;;;13.80;68.84
8229;BME280;4155;50.118;8.714;2022-09-21T06:23:17;101154.59;;;14.25;66.51
8229;BME280;4155;50.118;8.714;2022-09-21T06:25:50;101158.94;;;14.05;65.72
8229;BME280;4155;50.118;8.714;2022-09-21T06:28:24;101155.41;;;15.72;61.38
8229;BME280;4155;50.118;8.714;2022-09-21T06:30:53;101146.22;;;16.34;59.00
8229;BME280;4155;50.118;8.714;2022-09-21T06:33:21;101143.09;;;16.90;56.90
8229;BME280;4155;50.118;8.714;2022-09-21T06:35:53;101140.38;;;17.03;55.35
8229;BME280;4155;50.118;8.714;2022-09-21T06:38:22;101132.50;;;17.53;53.88
8229;BME280;4155;50.118;8.714;2022-09-21T06:40:51;101138.91;;;17.14;55.52
8229;BME280;4155;50.118;8.714;2022-09-21T06:43:19;101136.44;;;18.09;53.00
8229;BME280;4155;50.118;8.714;2022-09-21T06:45:54;101141.00;;;17.77;52.93
8229;BME280;4155;50.118;8.714;2022-09-21T06:48:23;101120.59;;;15.56;60.58
8229;BME280;4155;50.118;8.714;2022-09-21T06:50:55;101123.69;;;15.46;60.00
8229;BME280;4155;50.118;8.714;2022-09-21T06:53:25;101121.25;;;14.82;60.54
8229;BME280;4155;50.118;8.714;2022-09-21T06:55:53;101116.72;;;15.24;61.07
8229;BME280;4155;50.118;8.714;2022-09-21T06:58:20;101122.53;;;14.37;63.54
8229;BME280;4155;50.118;8.714;2022-09-21T07:00:48;101122.97;;;15.66;61.19
8229;BME280;4155;50.118;8.714;2022-09-21T07:03:16;101125.38;;;16.35;58.12
8229;BME280;4155;50.118;8.714;2022-09-21T07:05:44;101121.81;;;16.08;57.60
8229;BME280;4155;50.118;8.714;2022-09-21T07:08:11;101114.63;;;15.67;59.94
8229;BME280;4155;50.118;8.714;2022-09-21T07:11:00;101129.34;;;16.78;56.39
8229;BME280;4155;50.118;8.714;2022-09-21T07:13:29;101126.00;;;16.96;56.16
8229;BME280;4155;50.118;8.714;2022-09-21T07:15:57;101129.22;;;17.45;54.73
8229;BME280;4155;50.118;8.714;2022-09-21T07:18:25;101122.66;;;16.22;57.83
8229;BME280;4155;50.118;8.714;2022-09-21T07:20:53;101122.50;;;16.83;56.39
8229;BME280;4155;50.118;8.714;2022-09-21T07:23:21;101136.28;;;18.29;53.74
8229;BME280;4155;50.118;8.714;2022-09-21T07:25:48;101126.94;;;19.18;50.73
8229;BME280;4155;50.118;8.714;2022-09-21T07:28:19;101119.34;;;17.57;53.50
8229;BME280;4155;50.118;8.714;2022-09-21T07:30:47;101120.44;;;17.94;52.54
8229;BME280;4155;50.118;8.714;2022-09-21T07:33:15;101121.22;;;18.08;53.21
8229;BME280;4155;50.118;8.714;2022-09-21T07:35:49;101103.75;;;16.74;56.58
8229;BME280;4155;50.118;8.714;2022-09-21T07:38:17;101120.00;;;18.54;52.46
8229;BME280;4155;50.118;8.714;2022-09-21T07:40:45;101117.44;;;19.27;50.41
8229;BME280;4155;50.118;8.714;2022-09-21T07:43:13;101116.41;;;19.76;49.60
8229;BME280;4155;50.118;8.714;2022-09-21T07:45:42;101111.03;;;18.78;49.87
8229;BME280;4155;50.118;8.714;2022-09-21T07:48:12;101109.09;;;17.14;55.54
8229;BME280;4155;50.118;8.714;2022-09-21T07:50:40;101108.44;;;18.65;51.63
8229;BME280;4155;50.118;8.714;2022-09-21T07:53:08;101098.50;;;16.93;56.61
8229;BME280;4155;50.118;8.714;2022-09-21T07:55:35;101103.94;;;17.96;53.32
8229;BME280;4155;50.118;8.714;2022-09-21T07:58:03;101107.09;;;19.17;50.62
8229;BME280;4155;50.118;8.714;2022-09-21T08:00:49;101095.59;;;16.94;55.91
8229;BME280;4155;50.118;8.714;2022-09-21T08:03:17;101107.53;;;18.21;52.44
8229;BME280;4155;50.118;8.714;2022-09-21T08:05:45;101107.19;;;18.11;53.51
8229;BME280;4155;50.118;8.714;2022-09-21T08:08:13;101106.59;;;19.02;50.54
8229;BME280;4155;50.118;8.714;2022-09-21T08:10:42;101113.00;;;18.39;52.34
8229;BME280;4155;50.118;8.714;2022-09-21T08:13:12;101104.78;;;19.32;49.43
8229;BME280;4155;50.118;8.714;2022-09-21T08:15:40;101105.47;;;19.10;50.29
8229;BME280;4155;50.118;8.714;2022-09-21T08:18:17;101101.72;;;18.42;51.78
8229;BME280;4155;50.118;8.714;2022-09-21T08:20:52;101106.38;;;17.01;56.42
8229;BME280;4155;50.118;8.714;2022-09-21T08:23:20;101106.31;;;18.42;53.24
8229;BME280;4155;50.118;8.714;2022-09-21T08:25:48;101103.63;;;18.67;52.58
8229;BME280;4155;50.118;8.714;2022-09-21T08:28:16;101105.94;;;19.06;52.18
8229;BME280;4155;50.118;8.714;2022-09-21T08:30:45;101097.03;;;19.18;51.19
8229;BME280;4155;50.118;8.714;2022-09-21T08:33:12;101091.13;;;17.20;55.52
8229;BME280;4155;50.118;8.714;2022-09-21T08:35:41;101093.03;;;15.80;60.89
8229;BME280;4155;50.118;8.714;2022-09-21T08:38:09;101106.81;;;17.04;58.36
8229;BME280;4155;50.118;8.714;2022-09-21T08:40:39;101108.47;;;17.12;58.03
8229;BME280;4155;50.118;8.714;2022-09-21T08:43:10;101114.50;;;17.14;57.61
8229;BME280;4155;50.118;8.714;2022-09-21T08:45:42;101110.19;;;16.47;59.58
8229;BME280;4155;50.118;8.714;2022-09-21T08:48:13;101108.88;;;17.67;56.70
8229;BME280;4155;50.118;8.714;2022-09-21T08:50:52;101113.44;;;18.11;54.83
8229;BME280;4155;50.118;8.714;2022-09-21T08:53:25;101118.66;;;18.38;54.48
8229;BME280;4155;50.118;8.714;2022-09-21T08:55:57;101106.81;;;16.98;57.96
8229;BME280;4155;50.118;8.714;2022-09-21T08:58:26;101101.25;;;16.40;60.14
8229;BME280;4155;50.118;8.714;2022-09-21T09:01:04;101104.97;;;16.19;61.31
8229;BME280;4155;50.118;8.714;2022-09-21T09:03:53;101097.41;;;15.95;61.82
8229;BME280;4155;50.118;8.714;2022-09-21T09:06:37;101095.94;;;15.79;62.39
8229;BME280;4155;50.118;8.714;2022-09-21T09:09:18;101095.69;;;15.19;64.77
8229;BME280;4155;50.118;8.714;2022-09-21T09:12:00;101100.41;;;15.04;64.92
8229;BME280;4155;50.118;8.714;2022-09-21T09:14:54;101097.63;;;14.63;66.29
8229;BME280;4155;50.118;8.714;2022-09-21T09:17:32;101104.16;;;14.75;66.67
8229;BME280;4155;50.118;8.714;2022-09-21T09:20:10;101090.19;;;14.43;66.34
8229;BME280;4155;50.118;8.714;2022-09-21T09:22:43;101101.59;;;14.67;66.56
8229;BME280;4155;50.118;8.714;2022-09-21T09:25:16;101095.06;;;14.83;66.25
8229;BME280;4155;50.118;8.714;2022-09-21T09:27:47;101095.28;;;14.81;64.14
8229;BME280;4155;50.118;8.714;2022-09-21T09:30:18;101097.56;;;13.71;66.67
8229;BME280;4155;50.118;8.714;2022-09-21T09:32:52;101093.78;;;13.65;67.39
8229;BME280;4155;50.118;8.714;2022-09-21T09:35:27;101096.88;;;13.62;67.65
8229;BME280;4155;50.118;8.714;2022-09-21T09:38:03;101096.59;;;14.14;66.48
8229;BME280;4155;50.118;8.714;2022-09-21T09:40:50;101096.06;;;14.75;65.33
8229;BME280;4155;50.118;8.714;2022-09-21T09:43:31;101093.59;;;14.80;64.93
8229;BME280;4155;50.118;8.714;2022-09-21T09:46:10;101103.44;;;14.94;63.58
8229;BME280;4155;50.118;8.714;2022-09-21T09:48:48;101099.72;;;15.37;62.81
8229;BME280;4155;50.118;8.714;2022-09-21T09:51:21;101092.81;;;15.21;62.94
8229;BME280;4155;50.118;8.714;2022-09-21T09:53:58;101098.84;;;15.71;61.99
8229;BME280;4155;50.118;8.714;2022-09-21T09:56:34;101092.09;;;15.53;62.66
8229;BME280;4155;50.118;8.714;2022-09-21T09:59:04;101084.59;;;15.42;62.27
8229;BME280;4155;50.118;8.714;2022-09-21T10:01:39;101087.19;;;14.81;63.34
8229;BME280;4155;50.118;8.714;2022-09-21T10:04:09;101087.19;;;15.22;63.39
8229;BME280;4155;50.118;8.714;2022-09-21T10:06:38;101087.09;;;15.50;61.78
8229;BME280;4155;50.118;8.714;2022-09-21T10:09:24;101084.06;;;15.73;60.47
8229;BME280;4155;50.118;8.714;2022-09-21T10:11:57;101080.53;;;15.73;61.98
8229;BME280;4155;50.118;8.714;2022-09-21T10:14:26;101071.25;;;15.41;62.62
8229;BME280;4155;50.118;8.714;2022-09-21T10:17:05;101086.88;;;15.45;61.87
8229;BME280;4155;50.118;8.714;2022-09-21T10:19:33;101073.84;;;15.62;60.93
8229;BME280;4155;50.118;8.714;2022-09-21T10:22:03;101070.97;;;15.64;61.15
8229;BME280;4155;50.118;8.714;2022-09-21T10:24:35;101070.66;;;15.45;61.64
8229;BME280;4155;50.118;8.714;2022-09-21T10:27:05;101070.78;;;14.55;64.35
8229;BME280;4155;50.118;8.714;2022-09-21T10:29:41;101066.72;;;15.07;63.36
8229;BME280;4155;50.118;8.714;2022-09-21T10:32:24;101054.78;;;14.88;63.50
8229;BME280;4155;50.118;8.714;2022-09-21T10:35:16;101059.03;;;15.03;62.81
8229;BME280;4155;50.118;8.714;2022-09-21T10:37:48;101064.88;;;15.55;61.90
8229;BME280;4155;50.118;8.714;2022-09-21T10:40:27;101054.13;;;15.20;62.77
8229;BME280;4155;50.118;8.714;2022-09-21T10:42:58;101047.28;;;14.83;63.79
8229;BME280;4155;50.118;8.714;2022-09-21T10:45:28;101049.09;;;15.11;62.67
8229;BME280;4155;50.118;8.714;2022-09-21T10:47:57;101055.19;;;15.74;61.31
8229;BME280;4155;50.118;8.714;2022-09-21T10:50:28;101053.34;;;16.07;59.33
8229;BME280;4155;50.118;8.714;2022-09-21T10:52:59;101057.69;;;16.15;59.65
8229;BME280;4155;50.118;8.714;2022-09-21T10:55:30;101045.19;;;15.74;60.47
8229;BME280;4155;50.118;8.714;2022-09-21T10:58:08;101043.78;;;16.18;59.43
8229;BME280;4155;50.118;8.714;2022-09-21T11:00:41;101043.34;;;16.28;60.95
8229;BME280;4155;50.118;8.714;2022-09-21T11:03:37;101041.44;;;15.75;59.83
8229;BME280;4155;50.118;8.714;2022-09-21T11:06:12;101044.19;;;16.28;59.02
8229;BME280;4155;50.118;8.714;2022-09-21T11:08:45;101042.25;;;15.82;59.58
8229;BME280;4155;50.118;8.714;2022-09-21T11:11:31;101040.06;;;15.31;59.59
8229;BME280;4155;50.118;8.714;2022-09-21T11:14:08;101035.44;;;16.00;58.69
8229;BME280;4155;50.118;8.714;2022-09-21T11:16:40;101043.34;;;16.21;59.05
8229;BME280;4155;50.118;8.714;2022-09-21T11:19:19;101043.09;;;16.56;57.43
8229;BME280;4155;50.118;8.714;2022-09-21T11:21:54;101036.00;;;16.81;55.55
8229;BME280;4155;50.118;8.714;2022-09-21T11:24:29;101036.78;;;17.01;55.76
8229;BME280;4155;50.118;8.714;2022-09-21T11:27:04;101030.09;;;17.04;54.46
8229;BME280;4155;50.118;8.714;2022-09-21T11:29:41;101025.00;;;16.49;55.47
8229;BME280;4155;50.118;8.714;2022-09-21T11:32:23;101022.09;;;16.11;55.81
8229;BME280;4155;50.118;8.714;2022-09-21T11:35:07;101027.75;;;15.97;55.21
8229;BME280;4155;50.118;8.714;2022-09-21T11:37:50;101023.31;;;16.55;54.49
8229;BME280;4155;50.118;8.714;2022-09-21T11:40:30;101013.59;;;16.28;54.15
8229;BME280;4155;50.118;8.714;2022-09-21T11:43:11;101016.69;;;16.05;54.46
8229;BME280;4155;50.118;8.714;2022-09-21T11:45:55;101013.16;;;16.24;54.24
8229;BME280;4155;50.118;8.714;2022-09-21T11:48:39;101005.81;;;16.71;52.51
8229;BME280;4155;50.118;8.714;2022-09-21T11:51:23;101008.94;;;16.74;52.74
8229;BME280;4155;50.118;8.714;2022-09-21T11:54:28;100999.97;;;16.74;51.73
8229;BME280;4155;50.118;8.714;2022-09-21T11:57:07;100999.16;;;16.60;53.59
8229;BME280;4155;50.118;8.714;2022-09-21T11:59:55;101004.75;;;16.59;53.68
8229;BME280;4155;50.118;8.714;2022-09-21T12:02:42;101001.56;;;17.01;52.56
8229;BME280;4155;50.118;8.714;2022-09-21T12:05:28;100994.09;;;17.35;52.11
8229;BME280;4155;50.118;8.714;2022-09-21T12:08:13;100990.41;;;16.71;53.03
8229;BME280;4155;50.118;8.714;2022-09-21T12:10:51;100991.34;;;16.90;52.10
8229;BME280;4155;50.118;8.714;2022-09-21T12:13:28;100994.56;;;16.81;51.35
8229;BME280;4155;50.118;8.714;2022-09-21T12:16:05;100977.34;;;17.00;51.30
8229;BME280;4155;50.118;8.714;2022-09-21T12:18:44;100979.34;;;16.66;50.97
8229;BME280;4155;50.118;8.714;2022-09-21T12:21:19;100979.66;;;17.03;50.78
8229;BME280;4155;50.118;8.714;2022-09-21T12:23:51;100973.81;;;16.99;50.80
8229;BME280;4155;50.118;8.714;2022-09-21T12:26:24;100974.06;;;17.36;48.00
8229;BME280;4155;50.118;8.714;2022-09-21T12:28:56;100964.06;;;16.92;49.63
8229;BME280;4155;50.118;8.714;2022-09-21T12:31:32;100970.38;;;17.24;51.56
8229;BME280;4155;50.118;8.714;2022-09-21T12:34:04;100960.94;;;16.95;50.10
8229;BME280;4155;50.118;8.714;2022-09-21T12:36:39;100961.84;;;16.75;51.37
8229;BME280;4155;50.118;8.714;2022-09-21T12:39:12;100961.38;;;17.30;50.90
8229;BME280;4155;50.118;8.714;2022-09-21T12:41:47;100959.53;;;17.24;50.38
8229;BME280;4155;50.118;8.714;2022-09-21T12:44:23;100949.44;;;17.69;50.85
8229;BME280;4155;50.118;8.714;2022-09-21T12:46:59;100948.69;;;17.55;49.62
8229;BME280;4155;50.118;8.714;2022-09-21T12:49:38;100947.16;;;17.66;49.32
8229;BME280;4155;50.118;8.714;2022-09-21T12:52:09;100947.22;;;17.53;48.96
8229;BME280;4155;50.118;8.714;2022-09-21T12:54:43;100937.50;;;17.45;49.30
8229;BME280;4155;50.118;8.714;2022-09-21T12:57:20;100941.25;;;17.13;50.01
8229;BME280;4155;50.118;8.714;2022-09-21T13:00:13;100937.53;;;17.95;47.87
8229;BME280;4155;50.118;8.714;2022-09-21T13:02:46;100938.25;;;18.09;48.90
8229;BME280;4155;50.118;8.714;2022-09-21T13:05:22;100922.59;;;18.11;47.31
8229;BME280;4155;50.118;8.714;2022-09-21T13:08:09;100928.47;;;18.08;48.51
8229;BME280;4155;50.118;8.714;2022-09-21T13:10:41;100919.25;;;17.84;47.33
8229;BME280;4155;50.118;8.714;2022-09-21T13:13:21;100919.56;;;17.76;48.03
8229;BME280;4155;50.118;8.714;2022-09-21T13:15:50;100909.56;;;16.68;50.13
8229;BME280;4155;50.118;8.714;2022-09-21T13:18:23;100915.09;;;16.93;49.99
8229;BME280;4155;50.118;8.714;2022-09-21T13:20:58;100920.41;;;17.13;49.98
8229;BME280;4155;50.118;8.714;2022-09-21T13:23:33;100913.47;;;17.49;47.99
8229;BME280;4155;50.118;8.714;2022-09-21T13:26:04;100912.06;;;17.71;46.62
8229;BME280;4155;50.118;8.714;2022-09-21T13:29:03;100911.53;;;17.87;46.91
8229;BME280;4155;50.118;8.714;2022-09-21T13:31:40;100905.19;;;17.93;46.12
8229;BME280;4155;50.118;8.714;2022-09-21T13:34:21;100898.69;;;18.19;45.86
8229;BME280;4155;50.118;8.714;2022-09-21T13:43:18;100896.81;;;17.45;46.42
8229;BME280;4155;50.118;8.714;2022-09-21T13:45:53;100888.78;;;18.07;45.07